Aeroporto :
LOGIN :

Iscrizione | Disclaimer

   EN    FR    IT 

 










Sommario :    VFR   VFR Marginale   IFR   IFR Intensivo   IFR Molto Intensivo
Visibilità : 
Base nubi : 
>= 8 km
>= 3000ft
5 / 8 km
1000 / 3000 ft
1500m / 5 km
500 / 1000 ft
800 / 1500m
200 / 500 ft
< 800m
< 200 ft
Simboli :   Temporali  Nebbia  Neve Forte  Precipitazioni Forti  Vento > 20 kt
SIGMETs :   Varie  Temporali  Ghiacco  Turbolenza  Onda orograficha  Ceneri Vulcaniche






- Altitudine del aeroporto : 235 ft
- Codice IATA : BZG


EPBY - Bydgoszcz

ULTIMO METAR :
  • 250030Z 14007KT 8000 -RA OVC004 02/01 Q1002

METARs OBSOLETI :
  • 250000Z 15007KT 8000 -RA BKN004 OVC007 02/01 Q1003
  • 242330Z 15006KT 9000 -RA BKN005 OVC008 03/02 Q1003
  • 242300Z 16006KT 110V200 9999 -RA BKN008 OVC015 03/02 Q1004
  • 242230Z 16005KT 120V200 9999 -RA FEW009 OVC023 03/02 Q1005
  • 242200Z 20008KT 170V230 7000 -RA SCT010 BKN016 OVC020 03/01 Q1006

TAF TAF EPBY
Valido dal 25 a 00 ore il 26 a 00 ore UTC


242330Z 2500/2524 15006KT 8000 -RA BKN007 OVC010
TEMPO 2500/2507 4000 RA BR OVC004
BECMG 2508/2511 22012KT 9999 BKN020
PROB40
TEMPO 2511/2524 22016G28KT -SHRA BKN014CB



MetMap, La meteo Aeronautica in un colpo d'occhio ! - Copyright ORBIFLY Dicembre 2007 - Disclaimer

ORBIFLY MET'MAP TEAM :

Programmazione e sviluppo : Alexandra Zaïnal
Concezione : Baudouin d'Aumeries
Aiuto per la programmazione : Marc-Olivier Méhu
Supporto tecnico e logistico : Manuel Goepfert
Aiuto per la traduzione : Arnaldo La Scala

Contatto : metmap@orbifly.com




FONTI E CREDITI :

   NOAA